Time;durP1;ratioP1;P1;durP2;ratioP2;P2;SDS_P1;SDS_P2;PMS_P1;PMS_P2;Temp;Humidity;BMP_temperature;BMP_pressure;BME280_temperature;BME280_humidity;BME280_pressure;Samples;Min_cycle;Max_cycle;Signal;HPM_P1;HPM_P2
2022/06/13 00:01:47;;;;;;;12.57;4.40;;;13.20;99.90;;;;;;5071097;28;20421;-79
2022/06/13 00:04:13;;;;;;;17.83;4.28;;;13.20;99.90;;;;;;5066601;28;20043;-79
2022/06/13 00:06:38;;;;;;;11.90;4.22;;;13.30;99.90;;;;;;5065947;28;20132;-79
2022/06/13 00:09:06;;;;;;;10.90;4.22;;;13.30;99.90;;;;;;5018673;28;20060;-79
2022/06/13 00:11:31;;;;;;;17.45;4.55;;;13.40;99.90;;;;;;5051806;28;20044;-79
2022/06/13 00:13:57;;;;;;;11.50;4.20;;;13.40;99.90;;;;;;5034943;28;20120;-79
2022/06/13 00:16:24;;;;;;;14.40;4.15;;;13.40;99.90;;;;;;5052557;28;20044;-79
2022/06/13 00:18:50;;;;;;;10.63;3.63;;;13.50;99.90;;;;;;5066536;28;20049;-80
2022/06/13 00:21:36;;;;;;;12.50;3.63;;;13.50;99.90;;;;;;5035029;28;20059;-79
2022/06/13 00:24:05;;;;;;;13.27;4.25;;;13.50;99.90;;;;;;5071228;28;20040;-79
2022/06/13 00:26:32;;;;;;;14.77;3.90;;;13.50;99.90;;;;;;5071539;28;20059;-80
2022/06/13 00:28:59;;;;;;;15.60;4.22;;;13.50;99.90;;;;;;5069749;28;20049;-79
2022/06/13 00:31:25;;;;;;;13.48;3.90;;;13.50;99.90;;;;;;5071435;28;20049;-79
2022/06/13 00:33:51;;;;;;;16.33;4.13;;;13.50;99.90;;;;;;5070524;28;20051;-79
2022/06/13 00:36:17;;;;;;;17.47;4.93;;;13.60;99.90;;;;;;5072096;28;20497;-79
2022/06/13 00:38:43;;;;;;;18.27;5.68;;;13.50;99.90;;;;;;5060860;28;20272;-79
2022/06/13 00:41:17;;;;;;;15.20;5.15;;;13.50;99.90;;;;;;5051345;28;20131;-79
2022/06/13 00:43:44;;;;;;;15.05;4.65;;;13.50;99.90;;;;;;5052390;28;20110;-79
2022/06/13 00:46:25;;;;;;;13.95;5.00;;;13.50;99.90;;;;;;5052122;28;20040;-79
2022/06/13 00:48:56;;;;;;;15.60;5.57;;;13.60;99.90;;;;;;5053421;28;20051;-79
2022/06/13 00:51:22;;;;;;;18.63;5.53;;;13.60;99.90;;;;;;5052350;28;20041;-79
2022/06/13 00:53:49;;;;;;;13.23;4.75;;;13.60;99.90;;;;;;5058444;28;20036;-82
2022/06/13 00:56:17;;;;;;;15.20;5.30;;;13.60;99.90;;;;;;5054526;28;20052;-79
2022/06/13 00:58:55;;;;;;;16.08;5.28;;;13.70;99.90;;;;;;5054401;28;20052;-80
2022/06/13 01:01:23;;;;;;;13.15;5.50;;;13.60;99.90;;;;;;5054487;28;20111;-79
2022/06/13 01:03:50;;;;;;;15.15;5.22;;;13.70;99.90;;;;;;5066381;28;20060;-79
2022/06/13 01:06:17;;;;;;;15.05;5.22;;;13.60;99.90;;;;;;5052176;28;20041;-79
2022/06/13 01:08:43;;;;;;;15.88;5.60;;;13.70;99.90;;;;;;5052020;28;20075;-79
2022/06/13 01:11:16;;;;;;;16.75;5.85;;;13.60;99.90;;;;;;5070012;28;20056;-79
2022/06/13 01:14:35;;;;;;;12.63;5.47;;;13.60;99.90;;;;;;5054289;28;20052;-79
2022/06/13 01:17:25;;;;;;;15.45;5.50;;;13.60;99.90;;;;;;5052057;28;20058;-80
2022/06/13 01:20:14;;;;;;;14.80;5.77;;;13.70;99.90;;;;;;5055512;28;20051;-79
2022/06/13 01:23:17;;;;;;;18.90;6.35;;;13.60;99.90;;;;;;5038944;28;20378;-79
2022/06/13 01:26:07;;;;;;;13.68;5.53;;;13.50;99.90;;;;;;5046516;28;20106;-79
2022/06/13 01:28:57;;;;;;;16.15;6.53;;;13.50;99.90;;;;;;5030119;28;20044;-79
2022/06/13 01:31:53;;;;;;;18.75;6.25;;;13.40;99.90;;;;;;5073524;28;20044;-79
2022/06/13 01:34:49;;;;;;;20.98;6.47;;;13.40;99.90;;;;;;5056605;28;20057;-79
2022/06/13 01:37:36;;;;;;;17.02;6.20;;;13.20;99.90;;;;;;5054947;28;20044;-79
2022/06/13 01:40:13;;;;;;;17.13;6.85;;;13.10;99.90;;;;;;5056341;28;20075;-79
2022/06/13 01:43:05;;;;;;;17.02;6.45;;;13.00;99.90;;;;;;5072643;28;20079;-79
2022/06/13 01:45:44;;;;;;;13.82;6.03;;;13.00;99.90;;;;;;5050435;28;20413;-82
2022/06/13 01:48:32;;;;;;;19.48;6.90;;;13.10;99.90;;;;;;5056692;28;20110;-79
2022/06/13 01:51:16;;;;;;;18.67;7.22;;;13.10;99.90;;;;;;5055232;28;20136;-79
2022/06/13 01:53:46;;;;;;;18.45;7.35;;;13.10;99.90;;;;;;5061792;28;20056;-79
2022/06/13 01:56:14;;;;;;;16.80;6.63;;;13.10;99.90;;;;;;5065524;28;20037;-79
2022/06/13 01:58:52;;;;;;;17.48;6.50;;;13.20;99.90;;;;;;5055348;28;20084;-79
2022/06/13 02:01:40;;;;;;;16.80;6.18;;;13.20;99.90;;;;;;5055141;28;20049;-79
2022/06/13 02:04:24;;;;;;;15.90;6.03;;;13.20;99.90;;;;;;5020982;28;20063;-79
2022/06/13 02:07:03;;;;;;;21.50;6.22;;;13.20;99.90;;;;;;5073166;28;20403;-79
2022/06/13 02:09:34;;;;;;;11.77;4.93;;;13.20;99.90;;;;;;5071970;28;20053;-79
2022/06/13 02:12:00;;;;;;;15.98;6.05;;;13.20;99.90;;;;;;5057654;28;20413;-79
2022/06/13 02:14:34;;;;;;;14.75;6.00;;;13.20;99.90;;;;;;5074931;28;20041;-79
2022/06/13 02:17:07;;;;;;;14.00;5.53;;;13.20;99.90;;;;;;5074766;28;20044;-79
2022/06/13 02:19:40;;;;;;;16.10;5.35;;;13.20;99.90;;;;;;5073662;28;20048;-79
2022/06/13 02:22:24;;;;;;;17.08;5.75;;;13.20;99.90;;;;;;5055599;28;20045;-79
2022/06/13 02:24:59;;;;;;;15.65;6.18;;;13.20;99.90;;;;;;5057113;28;20045;-79
2022/06/13 02:27:33;;;;;;;15.02;5.97;;;13.20;99.90;;;;;;5072805;28;20082;-79
2022/06/13 02:30:04;;;;;;;15.68;5.70;;;13.20;99.90;;;;;;5036010;28;20071;-79
2022/06/13 02:32:39;;;;;;;13.27;5.57;;;13.20;99.90;;;;;;5054802;28;20051;-79
2022/06/13 02:35:22;;;;;;;18.85;5.88;;;13.10;99.90;;;;;;5058894;28;20131;-81
2022/06/13 02:38:15;;;;;;;16.45;6.43;;;13.10;99.90;;;;;;5071139;28;20062;-79
2022/06/13 02:40:47;;;;;;;18.38;6.32;;;13.20;99.90;;;;;;5074643;28;20059;-79
2022/06/13 02:43:20;;;;;;;14.35;5.95;;;13.10;99.90;;;;;;5068178;28;20052;-79
2022/06/13 02:45:53;;;;;;;13.77;6.22;;;13.10;99.90;;;;;;5054338;28;20088;-79
2022/06/13 02:48:40;;;;;;;15.40;6.45;;;13.10;99.90;;;;;;5053944;28;20041;-79
2022/06/13 02:51:18;;;;;;;17.67;6.47;;;13.10;99.90;;;;;;5065440;28;20044;-79
2022/06/13 02:53:52;;;;;;;15.35;6.30;;;13.10;99.90;;;;;;5072428;28;20076;-79
2022/06/13 02:56:24;;;;;;;17.55;7.28;;;13.00;99.90;;;;;;5073825;28;20055;-79
2022/06/13 02:59:27;;;;;;;15.52;6.80;;;13.00;99.90;;;;;;5064258;28;20047;-79
2022/06/13 03:01:59;;;;;;;21.38;6.85;;;13.00;99.90;;;;;;5072172;28;20041;-79
2022/06/13 03:04:38;;;;;;;20.35;7.95;;;12.90;99.90;;;;;;5066751;28;20053;-79
2022/06/13 03:07:47;;;;;;;18.85;7.72;;;12.90;99.90;;;;;;5053771;28;20052;-79
2022/06/13 03:10:21;;;;;;;19.58;7.03;;;12.80;99.90;;;;;;5061554;28;20419;-79
2022/06/13 03:12:52;;;;;;;15.00;6.90;;;12.70;99.90;;;;;;5071323;28;20114;-79
2022/06/13 03:15:18;;;;;;;18.85;7.28;;;12.60;99.90;;;;;;5044669;28;20099;-79
2022/06/13 03:18:08;;;;;;;15.07;6.97;;;12.70;99.90;;;;;;5051074;28;20053;-79
2022/06/13 03:20:51;;;;;;;19.58;8.18;;;12.70;99.90;;;;;;5018514;28;20160;-79
2022/06/13 03:23:30;;;;;;;22.48;7.88;;;12.70;99.90;;;;;;5050512;28;20056;-79
2022/06/13 03:26:02;;;;;;;15.48;7.60;;;12.70;99.90;;;;;;5053041;28;20133;-79
2022/06/13 03:28:41;;;;;;;22.10;7.82;;;12.70;99.90;;;;;;5037459;28;20111;-79
2022/06/13 03:31:11;;;;;;;22.98;7.88;;;12.70;99.90;;;;;;5034715;28;20151;-79
2022/06/13 03:33:41;;;;;;;25.30;9.15;;;12.60;99.90;;;;;;5034700;28;20092;-79
2022/06/13 03:36:39;;;;;;;17.67;7.97;;;12.70;99.90;;;;;;5044200;28;20508;-79
2022/06/13 03:39:25;;;;;;;16.80;8.88;;;12.70;99.90;;;;;;5050932;28;20457;-79
2022/06/13 03:42:11;;;;;;;28.13;9.40;;;12.70;99.90;;;;;;5054845;28;20059;-79
2022/06/13 03:44:46;;;;;;;19.90;9.77;;;12.80;99.90;;;;;;5051943;28;20055;-80
2022/06/13 03:47:15;;;;;;;18.98;9.05;;;12.80;99.90;;;;;;5049472;28;20044;-79
2022/06/13 03:50:10;;;;;;;29.17;10.02;;;12.90;99.90;;;;;;5071422;28;20045;-79
2022/06/13 03:52:39;;;;;;;29.33;9.80;;;12.90;99.90;;;;;;5070346;28;20044;-79
2022/06/13 03:55:11;;;;;;;21.80;9.73;;;13.00;99.90;;;;;;5072954;28;20395;-79
2022/06/13 03:57:46;;;;;;;22.45;8.57;;;13.00;99.90;;;;;;5069524;28;20462;-79
2022/06/13 04:00:14;;;;;;;25.77;10.38;;;13.10;99.90;;;;;;5072091;28;20409;-79
2022/06/13 04:02:42;;;;;;;26.02;10.15;;;13.20;99.90;;;;;;5042656;28;20049;-79
2022/06/13 04:05:27;;;;;;;23.15;9.65;;;13.20;99.90;;;;;;5052914;28;20063;-79
2022/06/13 04:07:53;;;;;;;23.98;10.80;;;13.30;99.90;;;;;;5052503;28;20514;-79
2022/06/13 04:10:23;;;;;;;22.63;10.05;;;13.30;99.90;;;;;;5051895;28;20059;-79
2022/06/13 04:13:06;;;;;;;24.58;10.02;;;13.30;99.90;;;;;;5052757;28;20053;-79
2022/06/13 04:15:53;;;;;;;20.38;10.02;;;13.40;99.90;;;;;;5051901;28;20049;-79
2022/06/13 04:18:18;;;;;;;21.90;10.52;;;13.40;99.90;;;;;;5064120;28;20124;-79
2022/06/13 04:20:57;;;;;;;26.88;10.48;;;13.50;99.90;;;;;;5071495;28;20131;-79
2022/06/13 04:24:08;;;;;;;21.88;9.23;;;13.50;99.90;;;;;;5071742;28;20060;-79
2022/06/13 04:26:41;;;;;;;18.73;9.02;;;13.50;99.90;;;;;;5050243;28;20060;-80
2022/06/13 04:29:27;;;;;;;26.08;9.55;;;13.60;99.90;;;;;;5051485;28;20136;-79
2022/06/13 04:31:58;;;;;;;25.77;8.50;;;13.60;99.90;;;;;;5034092;28;20056;-79
2022/06/13 04:34:30;;;;;;;21.02;9.15;;;13.70;99.90;;;;;;5033822;28;20056;-79
2022/06/13 04:36:57;;;;;;;21.85;9.10;;;13.80;99.90;;;;;;5055722;28;20064;-78
2022/06/13 04:39:30;;;;;;;25.23;9.43;;;13.80;99.90;;;;;;5034956;28;20057;-80
2022/06/13 04:41:59;;;;;;;24.80;9.13;;;13.90;99.90;;;;;;5050140;28;20463;-79
2022/06/13 04:44:29;;;;;;;20.10;8.00;;;13.90;99.90;;;;;;5050339;28;20072;-79
2022/06/13 04:46:57;;;;;;;17.60;8.13;;;13.80;99.90;;;;;;5068054;28;20044;-79
2022/06/13 04:49:30;;;;;;;17.05;7.63;;;13.80;99.90;;;;;;5051822;28;20102;-78
2022/06/13 04:51:59;;;;;;;22.13;8.02;;;13.80;99.90;;;;;;5052285;28;20049;-80
2022/06/13 04:54:29;;;;;;;20.45;7.75;;;13.80;99.90;;;;;;5065992;28;20045;-79
2022/06/13 04:56:59;;;;;;;20.67;8.07;;;13.70;99.90;;;;;;5061778;28;20049;-79
2022/06/13 04:59:26;;;;;;;22.13;8.20;;;13.80;99.90;;;;;;5041363;28;20111;-79
2022/06/13 05:01:53;;;;;;;19.05;8.15;;;13.80;99.90;;;;;;5046160;28;20045;-79
2022/06/13 05:04:24;;;;;;;17.73;7.80;;;13.80;99.90;;;;;;5051870;28;20052;-79
2022/06/13 05:06:53;;;;;;;14.93;6.43;;;14.00;99.90;;;;;;5070970;28;20094;-79
2022/06/13 05:09:31;;;;;;;14.85;6.45;;;14.30;99.90;;;;;;5054702;28;20432;-79
2022/06/13 05:12:06;;;;;;;15.50;6.00;;;14.50;99.90;;;;;;5050502;28;20060;-81
2022/06/13 05:14:47;;;;;;;14.75;4.72;;;14.70;99.90;;;;;;5056673;28;20033;-79
2022/06/13 05:17:31;;;;;;;11.45;4.60;;;14.80;99.90;;;;;;5060322;28;20036;-80
2022/06/13 05:20:21;;;;;;;14.55;4.47;;;15.10;99.90;;;;;;5061058;28;20742;-79
2022/06/13 05:23:14;;;;;;;16.50;3.55;;;15.20;99.90;;;;;;5060837;28;20102;-79
2022/06/13 05:25:46;;;;;;;17.52;3.67;;;15.30;99.90;;;;;;5060042;28;20045;-79
2022/06/13 05:28:16;;;;;;;10.93;2.97;;;15.30;99.90;;;;;;5059915;28;20041;-79
2022/06/13 05:30:43;;;;;;;10.30;3.42;;;15.10;99.90;;;;;;5061326;28;20052;-79
2022/06/13 05:33:11;;;;;;;8.88;3.08;;;15.10;99.90;;;;;;5059115;28;20044;-80
2022/06/13 05:35:43;;;;;;;10.05;3.15;;;15.10;99.90;;;;;;5060845;28;20070;-79
2022/06/13 05:38:16;;;;;;;10.68;3.15;;;15.00;99.90;;;;;;5033593;28;20398;-79
2022/06/13 05:40:44;;;;;;;11.85;3.47;;;14.90;99.90;;;;;;5034134;28;20084;-80
2022/06/13 05:43:11;;;;;;;10.23;2.47;;;14.90;99.90;;;;;;5034357;28;20064;-80
2022/06/13 05:45:39;;;;;;;11.73;2.90;;;15.00;99.90;;;;;;5050649;28;20051;-79
2022/06/13 05:48:08;;;;;;;9.23;3.00;;;15.00;99.90;;;;;;5034282;28;20079;-79
2022/06/13 05:50:33;;;;;;;12.32;2.97;;;15.10;99.90;;;;;;5050734;28;20048;-80
2022/06/13 05:53:00;;;;;;;8.88;2.78;;;15.10;99.90;;;;;;5051897;28;20045;-79
2022/06/13 05:55:25;;;;;;;11.93;2.67;;;15.20;99.90;;;;;;5051155;28;20440;-80
2022/06/13 05:57:51;;;;;;;8.75;3.03;;;15.40;99.90;;;;;;5051868;28;20039;-79
2022/06/13 06:00:22;;;;;;;8.63;2.38;;;15.70;99.90;;;;;;5051923;28;20140;-79
2022/06/13 06:02:48;;;;;;;8.98;2.58;;;16.00;99.90;;;;;;5051795;28;20049;-79
2022/06/13 06:05:14;;;;;;;11.65;3.00;;;16.30;99.90;;;;;;5052310;28;20072;-79
2022/06/13 06:07:40;;;;;;;7.43;2.28;;;16.20;99.90;;;;;;5054145;28;20049;-80
2022/06/13 06:10:08;;;;;;;9.77;2.40;;;16.30;99.90;;;;;;5054731;28;20036;-80
2022/06/13 06:12:34;;;;;;;9.82;2.15;;;16.30;99.90;;;;;;5054588;28;20221;-79
2022/06/13 06:15:00;;;;;;;9.20;2.35;;;16.30;99.90;;;;;;5037665;28;20375;-80
2022/06/13 06:17:25;;;;;;;7.00;2.22;;;16.30;99.90;;;;;;5054700;28;20049;-79
2022/06/13 06:19:53;;;;;;;9.23;2.10;;;16.30;99.90;;;;;;5021353;28;20124;-80
2022/06/13 06:22:18;;;;;;;5.88;1.98;;;16.40;99.90;;;;;;5054319;28;20056;-81
2022/06/13 06:24:44;;;;;;;8.63;2.63;;;16.50;99.90;;;;;;5054524;28;20049;-80
2022/06/13 06:27:14;;;;;;;6.75;1.80;;;16.60;99.90;;;;;;5055625;28;20128;-80
2022/06/13 06:29:40;;;;;;;7.57;2.17;;;16.70;99.90;;;;;;5037868;28;20518;-79
2022/06/13 06:32:06;;;;;;;6.88;1.98;;;16.80;99.90;;;;;;5054460;28;20053;-80
2022/06/13 06:34:31;;;;;;;8.77;2.08;;;16.90;99.90;;;;;;5038056;28;20098;-79
2022/06/13 06:36:57;;;;;;;6.90;2.17;;;17.00;99.90;;;;;;5053930;28;20437;-80
2022/06/13 06:39:23;;;;;;;7.10;2.05;;;16.90;99.90;;;;;;5053822;28;20059;-80
2022/06/13 06:41:48;;;;;;;6.82;1.55;;;16.90;99.90;;;;;;5054204;28;20052;-79
2022/06/13 06:44:14;;;;;;;6.60;1.65;;;16.70;99.90;;;;;;5055067;28;20052;-80
2022/06/13 06:46:40;;;;;;;7.13;1.77;;;17.10;99.90;;;;;;5053898;28;20467;-81
2022/06/13 06:49:06;;;;;;;6.97;1.52;;;17.80;99.90;;;;;;5037009;28;20533;-80
2022/06/13 06:51:31;;;;;;;8.18;1.50;;;18.50;99.90;;;;;;5053866;28;20045;-80
2022/06/13 07:02:11;;;;;;;15.45;2.35;;;17.50;99.90;;;;;;5053281;28;20095;-82
2022/06/13 07:04:36;;;;;;;11.75;2.75;;;16.40;99.90;;;;;;5036811;28;20057;-83
2022/06/13 07:07:03;;;;;;;6.68;1.92;;;15.10;99.90;;;;;;5036902;28;20178;-82
2022/06/13 07:09:28;;;;;;;10.50;2.17;;;14.20;99.90;;;;;;5036334;28;20068;-81
2022/06/13 07:11:54;;;;;;;12.60;2.55;;;13.70;99.90;;;;;;5053082;28;20406;-83
2022/06/13 07:14:28;;;;;;;9.27;2.42;;;13.30;99.90;;;;;;5052728;28;20079;-82
2022/06/13 07:16:57;;;;;;;12.00;2.28;;;13.20;99.90;;;;;;5053383;28;20041;-83
2022/06/13 07:19:23;;;;;;;10.77;2.47;;;13.00;99.90;;;;;;5053065;28;20100;-82
2022/06/13 07:21:48;;;;;;;7.28;2.15;;;13.00;99.90;;;;;;5036432;28;20152;-82
2022/06/13 07:24:14;;;;;;;6.20;1.73;;;13.10;99.90;;;;;;5052774;28;20049;-83
2022/06/13 07:26:41;;;;;;;5.05;1.40;;;13.70;99.90;;;;;;5058538;28;20119;-84
2022/06/13 07:29:07;;;;;;;7.82;1.60;;;14.70;99.90;;;;;;5072387;28;20078;-84
2022/06/13 07:31:58;;;;;;;4.22;1.00;;;15.70;99.90;;;;;;5072296;28;20091;-84
2022/06/13 07:34:26;;;;;;;3.60;1.00;;;16.50;99.90;;;;;;5072287;28;20048;-83
2022/06/13 07:36:54;;;;;;;2.65;1.10;;;17.10;99.90;;;;;;5073258;28;20045;-83
2022/06/13 07:39:20;;;;;;;3.83;0.90;;;17.80;99.90;;;;;;5071765;28;20179;-85
2022/06/13 07:41:46;;;;;;;2.63;0.88;;;18.10;99.90;;;;;;5072258;28;20060;-81
2022/06/13 07:44:39;;;;;;;4.15;1.08;;;17.80;99.90;;;;;;5071873;28;20494;-83
2022/06/13 07:47:05;;;;;;;4.65;1.00;;;17.40;99.90;;;;;;5071635;28;20134;-84
2022/06/13 07:49:32;;;;;;;3.90;1.17;;;18.00;99.90;;;;;;5055665;28;20067;-83
2022/06/13 07:51:57;;;;;;;3.55;1.00;;;18.70;99.90;;;;;;5072447;28;20130;-85
2022/06/13 07:54:23;;;;;;;4.65;1.10;;;19.00;99.90;;;;;;5071645;28;20127;-83
2022/06/13 07:56:49;;;;;;;6.63;1.23;;;19.50;99.90;;;;;;5063297;28;20548;-83
2022/06/13 07:59:19;;;;;;;5.40;1.27;;;20.10;99.90;;;;;;5052882;28;20627;-84
2022/06/13 08:01:45;;;;;;;10.73;2.13;;;20.60;99.90;;;;;;5035423;28;20060;-85
2022/06/13 08:04:12;;;;;;;23.10;2.95;;;20.70;99.90;;;;;;5051736;28;20395;-84
2022/06/13 08:06:41;;;;;;;3.72;1.58;;;21.00;99.90;;;;;;5035613;28;20059;-86
2022/06/13 08:09:08;;;;;;;6.63;1.53;;;21.40;99.90;;;;;;5035664;28;20053;-88
2022/06/13 08:11:37;;;;;;;6.55;1.30;;;21.80;99.90;;;;;;5052027;28;20776;-88
2022/06/13 08:14:06;;;;;;;5.53;1.40;;;22.30;99.90;;;;;;5035534;28;20422;-83
2022/06/13 08:16:34;;;;;;;6.97;1.48;;;22.70;99.90;;;;;;5052171;28;20049;-89
2022/06/13 08:19:04;;;;;;;6.03;1.02;;;22.90;96.80;;;;;;5034616;28;20371;-84
2022/06/13 08:21:31;;;;;;;7.72;1.60;;;22.80;94.80;;;;;;5052365;28;20083;-87
2022/06/13 08:23:57;;;;;;;6.30;1.15;;;21.70;99.90;;;;;;5051795;28;20128;-86
2022/06/13 08:26:23;;;;;;;4.15;0.98;;;20.70;99.90;;;;;;5034685;28;20136;-86
2022/06/13 08:28:49;;;;;;;5.60;1.50;;;19.60;99.90;;;;;;5050639;28;20044;-82
2022/06/13 08:31:17;;;;;;;7.65;1.67;;;18.60;99.90;;;;;;5034576;28;20044;-86
2022/06/13 08:33:43;;;;;;;6.65;1.27;;;17.80;99.90;;;;;;5051174;28;20056;-84
2022/06/13 08:36:10;;;;;;;5.63;1.33;;;17.20;99.90;;;;;;5051015;28;20486;-84
2022/06/13 08:38:36;;;;;;;7.22;1.33;;;17.10;99.90;;;;;;5050695;28;20442;-83
2022/06/13 08:41:08;;;;;;;5.90;1.08;;;17.00;99.90;;;;;;5050988;28;20052;-84
2022/06/13 08:43:55;;;;;;;5.72;1.30;;;16.90;99.90;;;;;;5034549;28;20049;-85
2022/06/13 08:46:28;;;;;;;5.50;1.13;;;17.00;99.90;;;;;;5034548;28;20045;-83
2022/06/13 08:49:05;;;;;;;9.13;1.60;;;17.40;99.90;;;;;;5034824;28;20048;-86
2022/06/13 08:51:43;;;;;;;5.75;1.13;;;18.90;99.90;;;;;;5034188;28;20114;-83
2022/06/13 08:54:12;;;;;;;6.35;1.30;;;20.00;99.90;;;;;;5052438;28;20064;-83
2022/06/13 08:56:39;;;;;;;5.13;0.95;;;20.30;99.90;;;;;;5035625;28;20075;-85
2022/06/13 08:59:24;;;;;;;4.45;0.80;;;20.70;98.50;;;;;;5033094;28;20041;-83
2022/06/13 09:02:00;;;;;;;3.97;0.90;;;21.50;87.30;;;;;;5051074;28;20461;-85
2022/06/13 09:04:35;;;;;;;4.45;1.08;;;22.20;70.20;;;;;;5052465;28;20131;-84
2022/06/13 09:07:17;;;;;;;4.80;0.90;;;22.60;68.50;;;;;;5053467;28;20043;-83
2022/06/13 09:09:51;;;;;;;5.43;1.48;;;23.10;64.20;;;;;;5052317;28;20378;-84
2022/06/13 09:12:27;;;;;;;7.18;1.00;;;23.70;65.20;;;;;;5052039;28;20044;-84
2022/06/13 09:15:01;;;;;;;5.40;0.82;;;24.30;62.40;;;;;;5052505;28;20037;-85
2022/06/13 09:17:53;;;;;;;4.90;1.00;;;24.30;60.90;;;;;;5052211;28;20416;-85
2022/06/13 09:20:28;;;;;;;5.05;0.95;;;24.70;55.70;;;;;;5052409;28;20391;-84
2022/06/13 09:23:04;;;;;;;4.88;0.80;;;24.40;55.70;;;;;;5035443;28;20474;-83
2022/06/13 09:25:53;;;;;;;6.47;1.30;;;23.40;56.20;;;;;;5035380;28;20045;-83
2022/06/13 09:29:20;;;;;;;3.20;1.10;;;21.90;61.60;;;;;;5035837;28;20057;-84
2022/06/13 09:31:52;;;;;;;6.07;1.13;;;20.60;65.90;;;;;;4998726;28;20068;-82
2022/06/13 09:34:21;;;;;;;7.75;1.10;;;19.40;81.20;;;;;;5014752;28;20110;-82
2022/06/13 09:36:56;;;;;;;4.13;1.00;;;18.80;89.40;;;;;;5014609;28;20041;-84
2022/06/13 09:39:22;;;;;;;9.23;1.30;;;19.00;87.00;;;;;;5016245;28;20099;-82
2022/06/13 09:41:55;;;;;;;8.65;1.33;;;20.30;74.50;;;;;;5002047;28;20089;-83
2022/06/13 09:44:39;;;;;;;4.90;1.10;;;21.50;69.50;;;;;;5018250;28;20041;-83
2022/06/13 09:47:13;;;;;;;6.78;1.13;;;22.60;63.60;;;;;;5018666;28;20103;-81
2022/06/13 09:50:04;;;;;;;8.25;1.63;;;22.20;64.80;;;;;;5003007;28;20106;-82
2022/06/13 09:52:46;;;;;;;4.47;1.00;;;21.30;67.40;;;;;;5003457;28;20045;-83
2022/06/13 09:55:24;;;;;;;5.28;1.20;;;20.30;69.90;;;;;;5021001;28;20045;-83
2022/06/13 09:58:15;;;;;;;5.80;1.20;;;19.30;81.10;;;;;;5038036;28;20045;-83
2022/06/13 10:00:59;;;;;;;7.55;1.88;;;19.60;85.80;;;;;;5022377;28;20052;-84
2022/06/13 10:03:40;;;;;;;5.45;1.10;;;21.10;71.60;;;;;;5023421;28;20386;-84
2022/06/13 10:06:05;;;;;;;;;;;22.30;63.70;;;;;;5033651;28;20437;-83
2022/06/13 10:09:03;;;;;;;3.70;0.93;;;23.10;60.00;;;;;;5056794;28;19968;-84
2022/06/13 10:11:35;;;;;;;6.13;1.20;;;22.40;59.70;;;;;;5039054;28;20056;-84
2022/06/13 10:14:12;;;;;;;5.00;1.20;;;21.20;66.80;;;;;;5040663;28;20494;-82
2022/06/13 10:16:48;;;;;;;6.07;1.10;;;21.40;63.20;;;;;;5037373;28;20486;-83
2022/06/13 10:19:32;;;;;;;5.78;0.77;;;22.40;62.90;;;;;;5020956;28;20037;-84
2022/06/13 10:22:06;;;;;;;8.57;1.38;;;23.40;56.40;;;;;;5021099;28;20055;-83
2022/06/13 10:25:06;;;;;;;9.48;1.45;;;22.90;58.00;;;;;;5038367;28;20041;-82
2022/06/13 10:27:45;;;;;;;6.50;1.27;;;21.80;60.70;;;;;;5037276;28;20041;-83
2022/06/13 10:30:42;;;;;;;6.78;1.17;;;20.60;65.80;;;;;;5057208;28;20332;-84
2022/06/13 10:33:42;;;;;;;4.40;1.10;;;20.90;69.40;;;;;;5057313;28;20036;-82
2022/06/13 10:36:44;;;;;;;4.53;0.95;;;22.60;60.80;;;;;;5053598;28;20056;-84
2022/06/13 10:39:17;;;;;;;7.75;1.40;;;23.60;53.90;;;;;;5039826;28;20088;-86
2022/06/13 10:41:46;;;;;;;6.78;1.30;;;23.80;53.30;;;;;;5056788;28;20048;-83
2022/06/13 10:44:15;;;;;;;5.20;1.13;;;23.10;54.70;;;;;;5056636;28;20059;-83
2022/06/13 10:46:49;;;;;;;4.70;1.02;;;21.90;59.20;;;;;;5040757;28;20540;-84
2022/06/13 10:49:22;;;;;;;7.32;1.50;;;20.50;67.50;;;;;;5055527;28;20524;-84
2022/06/13 10:51:50;;;;;;;9.55;1.48;;;19.50;78.50;;;;;;5055340;28;20041;-82
2022/06/13 10:54:20;;;;;;;3.42;1.20;;;19.70;84.60;;;;;;5055902;28;20067;-83
2022/06/13 10:56:49;;;;;;;;;;;21.20;68.60;;;;;;5040013;28;20490;-81
2022/06/13 10:59:30;;;;;;;10.18;1.60;;;22.70;60.40;;;;;;5071038;28;19916;-84
2022/06/13 11:02:05;;;;;;;8.25;1.42;;;23.90;58.80;;;;;;5074873;28;20036;-84
2022/06/13 11:04:34;;;;;;;7.13;1.45;;;25.00;54.80;;;;;;5074348;28;20045;-87
2022/06/13 11:07:11;;;;;;;3.78;1.10;;;25.20;52.00;;;;;;5074003;28;20048;-83
2022/06/13 11:09:54;;;;;;;7.65;1.17;;;24.10;54.10;;;;;;5074099;28;20098;-83
2022/06/13 11:12:30;;;;;;;4.82;1.17;;;22.90;54.30;;;;;;5074102;28;20036;-82
2022/06/13 11:23:44;;;;;;;4.88;1.30;;;26.30;50.90;;;;;;5073906;28;20049;-82
2022/06/13 11:28:57;;;;;;;8.07;1.73;;;24.70;50.40;;;;;;5055947;28;20052;-82
2022/06/13 11:31:26;;;;;;;9.85;1.48;;;23.00;54.40;;;;;;5056384;28;20076;-82
2022/06/13 11:33:53;;;;;;;10.45;1.48;;;21.70;58.10;;;;;;5055775;28;20052;-83
2022/06/13 11:36:22;;;;;;;8.10;1.35;;;20.70;63.00;;;;;;5039525;28;20044;-83
2022/06/13 11:39:06;;;;;;;4.85;1.35;;;20.10;67.50;;;;;;5038160;28;20131;-82
2022/06/13 11:41:43;;;;;;;8.05;1.40;;;20.10;70.20;;;;;;5075116;28;20052;-83
2022/06/13 11:44:13;;;;;;;6.43;1.20;;;20.50;64.90;;;;;;5060306;28;20044;-81
2022/06/13 11:46:53;;;;;;;5.90;1.20;;;21.10;63.60;;;;;;5056790;28;20053;-82
2022/06/13 11:49:36;;;;;;;5.88;1.23;;;21.20;61.00;;;;;;5055646;28;20378;-82
2022/06/13 11:52:11;;;;;;;7.53;1.50;;;20.70;63.50;;;;;;5038995;28;20075;-82
2022/06/13 11:54:48;;;;;;;9.68;1.58;;;20.30;66.30;;;;;;5039231;28;20040;-83
2022/06/13 11:57:17;;;;;;;6.25;1.25;;;19.80;71.40;;;;;;5055480;28;20079;-83
2022/06/13 11:59:53;;;;;;;9.15;1.60;;;19.50;77.50;;;;;;5055832;28;20047;-85
2022/06/13 12:02:23;;;;;;;8.05;1.55;;;19.40;76.90;;;;;;5055367;28;20047;-83
2022/06/13 12:04:53;;;;;;;;;;;19.50;74.70;;;;;;5072267;28;20396;-83
2022/06/13 12:07:31;;;;;;;16.95;2.05;;;19.80;75.80;;;;;;5036749;28;20007;-82
2022/06/13 12:09:59;;;;;;;11.52;1.50;;;20.20;72.00;;;;;;5062645;28;20061;-83
2022/06/13 12:12:27;;;;;;;13.93;1.75;;;20.30;72.10;;;;;;5073092;28;20048;-82
2022/06/13 12:14:54;;;;;;;18.67;2.67;;;20.10;72.70;;;;;;5074447;28;20052;-83
2022/06/13 12:17:28;;;;;;;5.60;1.30;;;19.90;74.20;;;;;;5074644;28;20040;-83
2022/06/13 12:20:03;;;;;;;8.23;1.30;;;19.60;76.80;;;;;;5073566;28;20048;-82
2022/06/13 12:22:44;;;;;;;4.15;1.00;;;19.60;80.00;;;;;;5056047;28;20144;-83
2022/06/13 12:25:21;;;;;;;9.50;1.42;;;19.50;85.60;;;;;;5073024;28;20105;-82
2022/06/13 12:27:56;;;;;;;8.15;1.30;;;19.40;86.40;;;;;;5073731;28;20339;-82
2022/06/13 12:30:47;;;;;;;7.32;1.83;;;19.40;83.70;;;;;;5072512;28;20056;-82
2022/06/13 12:33:34;;;;;;;8.13;2.15;;;19.50;84.60;;;;;;5072770;28;20052;-83
2022/06/13 12:36:21;;;;;;;7.75;1.17;;;20.50;74.10;;;;;;5072244;28;20070;-83
2022/06/13 12:39:12;;;;;;;6.45;1.25;;;20.60;69.60;;;;;;5072231;28;20087;-82
2022/06/13 12:41:56;;;;;;;8.32;1.42;;;20.20;71.50;;;;;;5055855;28;20041;-82
2022/06/13 12:44:34;;;;;;;8.15;1.23;;;19.90;78.00;;;;;;5072636;28;20047;-84
2022/06/13 12:47:31;;;;;;;9.02;1.88;;;20.70;72.00;;;;;;5073696;28;20051;-81
2022/06/13 12:50:41;;;;;;;4.97;0.90;;;22.10;61.50;;;;;;5055863;28;20043;-82
2022/06/13 12:53:07;;;;;;;;;;;23.40;54.10;;;;;;5071748;28;20095;-82
2022/06/13 12:56:06;;;;;;;6.88;1.13;;;23.50;53.30;;;;;;5072813;28;20011;-81
2022/06/13 12:58:37;;;;;;;4.68;1.23;;;23.90;54.50;;;;;;5055712;28;20045;-84
2022/06/13 13:01:12;;;;;;;3.83;1.10;;;24.80;52.70;;;;;;5072519;28;20358;-83
2022/06/13 13:03:53;;;;;;;5.20;1.20;;;25.90;48.50;;;;;;5055999;28;20535;-82
2022/06/13 13:06:38;;;;;;;5.55;1.08;;;25.80;48.00;;;;;;5072079;28;20094;-82
2022/06/13 13:09:37;;;;;;;3.17;1.13;;;25.00;50.50;;;;;;5072731;28;20040;-82
2022/06/13 13:12:25;;;;;;;4.15;1.10;;;23.70;50.70;;;;;;5072656;28;20068;-81
2022/06/13 13:15:17;;;;;;;4.88;0.95;;;23.10;53.70;;;;;;5074997;28;20056;-82
2022/06/13 13:17:49;;;;;;;7.97;1.40;;;24.10;50.50;;;;;;5077969;28;20048;-81
2022/06/13 13:20:42;;;;;;;3.55;0.98;;;25.00;49.60;;;;;;5077583;28;20119;-82
2022/06/13 13:23:42;;;;;;;6.07;1.30;;;25.70;48.70;;;;;;5060151;28;20079;-80
2022/06/13 13:26:17;;;;;;;8.10;1.58;;;25.80;49.00;;;;;;5058973;28;20048;-82
2022/06/13 13:29:08;;;;;;;5.75;1.13;;;26.00;47.60;;;;;;5058502;28;20084;-82
2022/06/13 13:32:07;;;;;;;7.78;1.10;;;26.20;47.40;;;;;;5058607;28;20044;-82
2022/06/13 13:34:55;;;;;;;4.10;1.25;;;26.00;45.70;;;;;;4999088;28;20061;-82
2022/06/13 13:37:37;;;;;;;5.05;1.15;;;24.60;46.00;;;;;;4998951;28;20045;-81
2022/06/13 13:40:28;;;;;;;7.22;1.25;;;23.30;50.50;;;;;;4998382;28;20551;-83
2022/06/13 13:42:53;;;;;;;;;;;22.30;51.70;;;;;;4999707;28;20053;-83
2022/06/13 13:45:28;;;;;;;6.47;1.10;;;21.50;53.70;;;;;;4998491;28;20314;-84